Terminal Aerodrome Forecast
Issued by NWS

Home | Current Version | Previous Version | Text Only | Print | Product List | Glossary On
Versions: 1 2 3 4 5 6 7 8 9 10 11 12 13 14 15 16
521
FTUS43 KDVN 062336
TAFBRL
TAF
KBRL 062336Z 0700/0724 27007KT P6SM SKC
     FM071200 28007KT P6SM BKN110=

USA.gov is the U.S. government's official web portal to all federal, state and local government web resources and services.